aviador You're here:

GMTT Decoded Metar

TANGER in MOROCCO
Report Time2018-06-24 20:00:00
UTC Time2018-06-24 20:20:52
Flight Rules ifr IFR
Wind260° at 06 kt
W.Decomp.*RWY 28: 5.7 kt HW 1.9 kt LCW
W.Rank260° ranks 11
Current wind is below 260° avg. (9.1)
Visibility4000 m
Phenomena:Mist
Clouds:Few 006 Hf
Scattered 013 Hf
Broken 020 Hf
Expected CloudBase > 1,600 ft AGL from Temp-Dew spread
Ceiling2,000 ft
Temp21°C (ISA +6)
Dew Point17°C (78% RH)
QNH1016 hPa
Density Alt942 ft
Elevation69 ft
Report Wrong Elevation
Raw Report
GMTT 242000Z 26006KT 4000 BR FEW006 SCT013 BKN020 21/17 Q1016
NOSIG=

Extra information for GMTT:More info

Metar Taf Metar & Taf Last 4 Metars F.Rules Stats Wind Profile Meteogram Temp Stats Airport Information Weather charts Add Link Nearby VenuesMetar ALERT Operation Metar Decoded Social comments